createdAt,value
2023-04-16T00:02:40.986Z,92.48
2023-04-16T00:05:44.071Z,92.27
2023-04-16T00:08:46.958Z,91.92
2023-04-16T00:11:49.878Z,91.80
2023-04-16T00:14:53.109Z,91.48
2023-04-16T00:17:56.686Z,93.15
2023-04-16T00:20:59.802Z,92.96
2023-04-16T00:24:02.679Z,93.34
2023-04-16T00:27:06.594Z,93.48
2023-04-16T00:30:10.048Z,93.82
2023-04-16T00:33:12.983Z,93.57
2023-04-16T00:36:16.157Z,95.39
2023-04-16T00:39:18.813Z,95.64
2023-04-16T00:42:21.731Z,94.99
2023-04-16T00:45:24.883Z,95.09
2023-04-16T00:48:28.393Z,95.34
2023-04-16T00:51:32.005Z,95.16
2023-04-16T00:54:35.041Z,95.20
2023-04-16T00:57:37.687Z,97.24
2023-04-16T01:00:41.791Z,96.39
2023-04-16T01:03:47.312Z,95.96
2023-04-16T01:06:51.267Z,94.94
2023-04-16T01:09:54.093Z,94.59
2023-04-16T01:12:57.235Z,94.49
2023-04-16T01:16:01.234Z,94.36
2023-04-16T01:19:04.126Z,94.39
2023-04-16T01:22:06.844Z,95.60
2023-04-16T01:25:15.636Z,95.29
2023-04-16T01:28:18.643Z,95.22
2023-04-16T01:31:21.698Z,94.68
2023-04-16T01:34:25.483Z,94.60
2023-04-16T01:37:28.616Z,94.04
2023-04-16T01:40:31.401Z,93.87
2023-04-16T01:43:34.923Z,93.85
2023-04-16T01:46:38.498Z,94.19
2023-04-16T01:49:44.135Z,94.68
2023-04-16T01:52:46.943Z,94.32
2023-04-16T01:55:50.069Z,94.19
2023-04-16T01:58:53.510Z,93.29
2023-04-16T02:01:57.129Z,92.51
2023-04-16T02:05:00.148Z,93.03
2023-04-16T02:08:02.922Z,93.36
2023-04-16T02:11:06.219Z,93.59
2023-04-16T02:14:09.687Z,93.95
2023-04-16T02:17:12.874Z,93.81
2023-04-16T02:20:16.149Z,93.10
2023-04-16T02:23:19.245Z,92.39
2023-04-16T02:26:21.984Z,92.16
2023-04-16T02:29:25.166Z,92.44
2023-04-16T02:32:27.899Z,92.42
2023-04-16T02:35:30.961Z,92.45
2023-04-16T02:38:33.668Z,92.94
2023-04-16T02:41:36.939Z,93.39
2023-04-16T02:44:39.517Z,93.51
2023-04-16T02:47:42.559Z,94.28
2023-04-16T02:50:45.500Z,93.90
2023-04-16T02:53:48.411Z,94.92
2023-04-16T02:56:50.981Z,95.68
2023-04-16T02:59:54.065Z,96.15
2023-04-16T03:02:56.733Z,96.21
2023-04-16T03:05:59.837Z,96.16
2023-04-16T03:09:02.667Z,95.67
2023-04-16T03:12:06.174Z,95.11
2023-04-16T03:15:09.148Z,95.21
2023-04-16T03:18:12.122Z,95.35
2023-04-16T03:21:14.600Z,95.08
2023-04-16T03:24:18.472Z,94.79
2023-04-16T03:27:24.110Z,94.59
2023-04-16T03:30:27.451Z,95.22
2023-04-16T03:33:30.453Z,94.66
2023-04-16T03:36:33.544Z,95.04
2023-04-16T03:39:36.113Z,94.98
2023-04-16T03:42:39.055Z,97.42
2023-04-16T03:45:46.326Z,98.58
2023-04-16T03:48:49.339Z,98.16
2023-04-16T03:51:52.033Z,97.87
2023-04-16T03:54:55.023Z,98.04
2023-04-16T03:57:58.320Z,97.68
2023-04-16T04:01:01.346Z,97.89
2023-04-16T04:04:05.920Z,97.86
2023-04-16T04:07:08.656Z,98.26
2023-04-16T04:10:12.100Z,98.53
2023-04-16T04:13:15.332Z,98.76
2023-04-16T04:16:18.900Z,98.48
2023-04-16T04:19:21.850Z,98.25
2023-04-16T04:22:24.841Z,98.70
2023-04-16T04:25:28.189Z,99.31
2023-04-16T04:28:33.427Z,100.00
2023-04-16T04:31:36.603Z,100.00
2023-04-16T04:34:39.549Z,99.77
2023-04-16T04:37:42.643Z,100.00
2023-04-16T04:40:46.986Z,100.00
2023-04-16T04:43:50.728Z,100.00
2023-04-16T04:46:53.831Z,100.00
2023-04-16T04:49:56.430Z,100.00
2023-04-16T04:52:59.445Z,100.00
2023-04-16T04:56:12.104Z,100.00
2023-04-16T04:59:16.688Z,100.00
2023-04-16T05:02:20.389Z,100.00
2023-04-16T05:05:23.602Z,100.00
2023-04-16T05:08:26.420Z,100.00
2023-04-16T05:11:30.008Z,100.00
2023-04-16T05:14:32.828Z,100.00
2023-04-16T05:17:35.903Z,100.00
2023-04-16T05:20:38.741Z,100.00
2023-04-16T05:23:41.599Z,100.00
2023-04-16T05:26:44.195Z,100.00
2023-04-16T05:29:47.027Z,100.00
2023-04-16T05:32:49.764Z,100.00
2023-04-16T05:35:52.751Z,100.00
2023-04-16T05:38:55.634Z,100.00
2023-04-16T05:41:59.233Z,100.00
2023-04-16T05:45:05.036Z,100.00
2023-04-16T05:48:12.532Z,100.00
2023-04-16T05:51:15.125Z,100.00
2023-04-16T05:54:18.394Z,100.00
2023-04-16T05:57:20.915Z,100.00
2023-04-16T06:00:24.004Z,99.80
2023-04-16T06:03:27.580Z,99.67
2023-04-16T06:06:30.327Z,100.00
2023-04-16T06:09:33.267Z,99.82
2023-04-16T06:12:36.413Z,100.00
2023-04-16T06:15:39.406Z,100.00
2023-04-16T06:18:42.516Z,99.95
2023-04-16T06:21:45.710Z,98.57
2023-04-16T06:24:48.564Z,97.77
2023-04-16T06:27:51.475Z,96.82
2023-04-16T06:30:54.157Z,96.28
2023-04-16T06:33:57.366Z,96.40
2023-04-16T06:37:00.047Z,96.55
2023-04-16T06:40:02.985Z,96.11
2023-04-16T06:43:06.166Z,95.90
2023-04-16T06:46:09.226Z,95.49
2023-04-16T06:49:12.083Z,95.64
2023-04-16T06:52:15.126Z,95.19
2023-04-16T06:55:17.822Z,95.66
2023-04-16T06:58:20.842Z,95.17
2023-04-16T07:01:23.609Z,94.99
2023-04-16T07:04:26.614Z,94.29
2023-04-16T07:07:29.295Z,93.50
2023-04-16T07:10:32.215Z,93.13
2023-04-16T07:13:34.804Z,92.55
2023-04-16T07:16:38.025Z,92.00
2023-04-16T07:19:41.183Z,91.89
2023-04-16T07:22:44.465Z,91.12
2023-04-16T07:25:47.025Z,90.96
2023-04-16T07:28:49.919Z,90.13
2023-04-16T07:31:52.573Z,89.84
2023-04-16T07:34:56.270Z,89.38
2023-04-16T07:37:59.046Z,88.61
2023-04-16T07:41:02.351Z,86.26
2023-04-16T07:44:05.103Z,85.15
2023-04-16T07:47:08.050Z,85.20
2023-04-16T07:50:10.987Z,84.48
2023-04-16T07:53:13.852Z,84.13
2023-04-16T07:56:16.656Z,84.07
2023-04-16T07:59:23.574Z,83.37
2023-04-16T08:02:27.652Z,83.67
2023-04-16T08:05:30.696Z,84.12
2023-04-16T08:08:33.271Z,84.17
2023-04-16T08:11:36.202Z,84.04
2023-04-16T08:14:39.088Z,82.68
2023-04-16T08:17:42.346Z,81.61
2023-04-16T08:20:44.958Z,80.62
2023-04-16T08:23:47.923Z,80.80
2023-04-16T08:26:50.458Z,81.70
2023-04-16T08:29:53.496Z,82.86
2023-04-16T08:32:56.340Z,83.32
2023-04-16T08:35:59.300Z,83.95
2023-04-16T08:39:02.104Z,84.78
2023-04-16T08:42:06.358Z,85.13
2023-04-16T08:45:15.981Z,85.98
2023-04-16T08:48:22.186Z,86.44
2023-04-16T08:51:27.683Z,86.39
2023-04-16T08:54:56.920Z,86.62
2023-04-16T08:58:00.903Z,86.79
2023-04-16T09:01:04.260Z,87.38
2023-04-16T09:04:07.640Z,87.06
2023-04-16T09:07:11.725Z,87.74
2023-04-16T09:10:15.522Z,87.84
2023-04-16T09:13:20.809Z,87.46
2023-04-16T09:16:25.218Z,86.72
2023-04-16T09:19:28.486Z,86.22
2023-04-16T09:22:31.244Z,85.15
2023-04-16T09:25:38.720Z,84.72
2023-04-16T09:28:42.838Z,83.84
2023-04-16T09:32:02.761Z,82.54
2023-04-16T09:35:05.762Z,81.70
2023-04-16T09:38:08.862Z,80.87
2023-04-16T09:41:11.511Z,80.42
2023-04-16T09:44:14.374Z,77.94
2023-04-16T09:47:17.335Z,79.00
2023-04-16T09:50:20.832Z,77.13
2023-04-16T09:53:28.157Z,78.03
2023-04-16T09:56:31.264Z,76.33
2023-04-16T09:59:36.537Z,75.28
2023-04-16T10:02:42.763Z,74.03
2023-04-16T10:05:46.150Z,73.00
2023-04-16T10:08:54.041Z,74.44
2023-04-16T10:11:57.345Z,72.05
2023-04-16T10:15:00.228Z,72.50
2023-04-16T10:18:04.695Z,70.85
2023-04-16T10:21:08.511Z,70.42
2023-04-16T10:24:12.929Z,69.46
2023-04-16T10:27:17.360Z,67.16
2023-04-16T10:30:21.896Z,65.38
2023-04-16T10:33:36.623Z,65.70
2023-04-16T10:36:40.356Z,65.80
2023-04-16T10:39:43.113Z,65.88
2023-04-16T10:42:55.095Z,67.81
2023-04-16T10:45:57.937Z,67.98
2023-04-16T10:49:03.199Z,67.53
2023-04-16T10:52:12.287Z,66.92
2023-04-16T10:55:18.068Z,66.23
2023-04-16T10:58:31.131Z,66.62
2023-04-16T11:01:36.180Z,64.94
2023-04-16T11:04:42.811Z,64.90
2023-04-16T11:07:49.962Z,63.52
2023-04-16T11:10:53.147Z,60.74
2023-04-16T11:13:57.233Z,58.73
2023-04-16T11:17:03.948Z,58.96
2023-04-16T11:20:19.300Z,58.59
2023-04-16T11:23:23.431Z,57.58
2023-04-16T11:26:28.670Z,56.90
2023-04-16T11:29:31.506Z,55.27
2023-04-16T11:32:36.202Z,57.03
2023-04-16T11:35:40.077Z,55.30
2023-04-16T11:38:43.311Z,54.74
2023-04-16T11:41:47.680Z,53.91
2023-04-16T11:44:57.888Z,53.34
2023-04-16T11:48:00.735Z,56.33
2023-04-16T11:51:03.771Z,56.50
2023-04-16T11:54:08.454Z,58.38
2023-04-16T11:57:13.550Z,59.32
2023-04-16T12:00:16.765Z,58.90
2023-04-16T12:03:37.600Z,59.55
2023-04-16T12:06:40.296Z,60.02
2023-04-16T12:09:44.128Z,60.52
2023-04-16T12:12:47.198Z,61.10
2023-04-16T12:15:52.093Z,61.70
2023-04-16T12:19:04.713Z,62.97
2023-04-16T12:22:07.585Z,61.82
2023-04-16T12:25:15.667Z,62.02
2023-04-16T12:28:47.954Z,62.18
2023-04-16T12:31:52.120Z,61.19
2023-04-16T12:34:55.031Z,61.37
2023-04-16T12:37:57.910Z,60.99
2023-04-16T12:41:02.401Z,60.37
2023-04-16T12:44:12.086Z,60.63
2023-04-16T12:47:15.299Z,59.32
2023-04-16T12:50:18.571Z,58.68
2023-04-16T12:53:21.453Z,58.09
2023-04-16T12:56:24.081Z,58.47
2023-04-16T12:59:27.002Z,56.95
2023-04-16T13:02:29.769Z,57.40
2023-04-16T13:05:32.709Z,57.18
2023-04-16T13:08:36.275Z,55.41
2023-04-16T13:11:39.262Z,54.86
2023-04-16T13:14:43.347Z,54.95
2023-04-16T13:17:48.124Z,56.10
2023-04-16T13:20:51.033Z,56.69
2023-04-16T13:23:54.597Z,57.67
2023-04-16T13:26:57.573Z,56.32
2023-04-16T13:30:00.751Z,55.74
2023-04-16T13:33:03.663Z,56.27
2023-04-16T13:36:07.317Z,57.17
2023-04-16T13:39:13.871Z,58.57
2023-04-16T13:42:18.186Z,58.04
2023-04-16T13:45:21.177Z,58.28
2023-04-16T13:48:24.110Z,58.29
2023-04-16T13:51:27.861Z,57.38
2023-04-16T13:54:31.151Z,57.32
2023-04-16T13:57:34.473Z,57.38
2023-04-16T14:00:38.394Z,58.67
2023-04-16T14:03:42.546Z,59.71
2023-04-16T14:06:45.920Z,59.68
2023-04-16T14:09:49.086Z,59.11
2023-04-16T14:12:52.358Z,59.24
2023-04-16T14:15:57.164Z,59.19
2023-04-16T14:19:00.201Z,59.21
2023-04-16T14:22:03.852Z,58.89
2023-04-16T14:25:07.341Z,58.47
2023-04-16T14:28:12.601Z,59.18
2023-04-16T14:31:19.283Z,59.24
2023-04-16T14:34:22.429Z,58.56
2023-04-16T14:37:26.420Z,57.64
2023-04-16T14:40:29.617Z,57.99
2023-04-16T14:43:32.594Z,57.52
2023-04-16T14:46:36.365Z,58.48
2023-04-16T14:49:39.310Z,58.78
2023-04-16T14:52:42.415Z,59.51
2023-04-16T14:55:45.250Z,59.60
2023-04-16T14:58:48.879Z,60.15
2023-04-16T15:01:52.059Z,60.32
2023-04-16T15:04:55.008Z,60.84
2023-04-16T15:07:58.212Z,60.90
2023-04-16T15:11:01.711Z,61.46
2023-04-16T15:14:04.478Z,62.41
2023-04-16T15:17:07.884Z,61.95
2023-04-16T15:20:11.316Z,62.37
2023-04-16T15:23:14.666Z,62.42
2023-04-16T15:26:18.158Z,61.95
2023-04-16T15:29:21.702Z,61.77
2023-04-16T15:32:25.936Z,62.12
2023-04-16T15:35:29.314Z,63.05
2023-04-16T15:38:32.437Z,63.07
2023-04-16T15:41:57.558Z,63.58
2023-04-16T15:45:04.241Z,64.15
2023-04-16T15:48:12.889Z,65.65
2023-04-16T15:51:17.124Z,66.39
2023-04-16T15:54:20.719Z,67.37
2023-04-16T15:57:23.718Z,67.63
2023-04-16T16:00:28.448Z,68.00
2023-04-16T16:03:34.320Z,68.80
2023-04-16T16:06:38.338Z,69.00
2023-04-16T16:09:42.396Z,70.41
2023-04-16T16:12:45.583Z,70.06
2023-04-16T16:15:50.920Z,69.75
2023-04-16T16:18:54.474Z,70.43
2023-04-16T16:21:58.311Z,70.76
2023-04-16T16:25:02.231Z,70.96
2023-04-16T16:28:06.842Z,70.75
2023-04-16T16:31:10.336Z,70.83
2023-04-16T16:34:20.463Z,71.13
2023-04-16T16:37:24.542Z,71.35
2023-04-16T16:40:30.240Z,71.34
2023-04-16T16:43:33.801Z,71.21
2023-04-16T16:46:37.887Z,71.44
2023-04-16T16:49:41.659Z,71.85
2023-04-16T16:52:45.734Z,71.58
2023-04-16T16:55:51.754Z,72.00
2023-04-16T16:58:55.951Z,71.88
2023-04-16T17:01:59.239Z,72.33
2023-04-16T17:05:03.352Z,72.46
2023-04-16T17:08:07.557Z,73.13
2023-04-16T17:11:13.429Z,72.95
2023-04-16T17:14:16.986Z,73.17
2023-04-16T17:17:21.584Z,73.74
2023-04-16T17:20:25.079Z,73.78
2023-04-16T17:23:28.584Z,74.33
2023-04-16T17:26:32.704Z,74.63
2023-04-16T17:29:36.532Z,74.95
2023-04-16T17:32:40.189Z,75.20
2023-04-16T17:35:44.524Z,75.86
2023-04-16T17:38:48.077Z,76.21
2023-04-16T17:41:55.347Z,76.18
2023-04-16T17:44:58.876Z,76.68
2023-04-16T17:48:02.717Z,76.84
2023-04-16T17:51:13.049Z,76.73
2023-04-16T17:54:16.487Z,76.83
2023-04-16T17:57:21.018Z,76.87
2023-04-16T18:00:24.813Z,77.34
2023-04-16T18:03:28.350Z,76.95
2023-04-16T18:06:32.241Z,77.36
2023-04-16T18:09:37.006Z,77.35
2023-04-16T18:12:40.697Z,76.98
2023-04-16T18:15:44.590Z,76.63
2023-04-16T18:18:49.670Z,76.82
2023-04-16T18:21:54.209Z,76.24
2023-04-16T18:24:58.320Z,76.37
2023-04-16T18:28:04.369Z,76.39
2023-04-16T18:31:08.412Z,76.00
2023-04-16T18:34:12.558Z,76.08
2023-04-16T18:37:16.803Z,75.70
2023-04-16T18:40:20.125Z,76.06
2023-04-16T18:43:27.919Z,76.07
2023-04-16T18:46:31.380Z,76.85
2023-04-16T18:49:37.466Z,77.19
2023-04-16T18:52:41.190Z,77.98
2023-04-16T18:55:46.979Z,78.10
2023-04-16T18:58:52.288Z,78.15
2023-04-16T19:01:55.702Z,78.01
2023-04-16T19:05:00.213Z,78.30
2023-04-16T19:08:03.632Z,78.87
2023-04-16T19:11:07.334Z,79.79
2023-04-16T19:14:11.508Z,81.81
2023-04-16T19:17:16.188Z,82.36
2023-04-16T19:20:21.538Z,82.47
2023-04-16T19:23:25.830Z,81.92
2023-04-16T19:26:28.889Z,81.98
2023-04-16T19:29:35.997Z,82.03
2023-04-16T19:32:39.651Z,82.02
2023-04-16T19:35:44.007Z,82.16
2023-04-16T19:38:48.541Z,82.40
2023-04-16T19:41:52.030Z,82.69
2023-04-16T19:44:55.586Z,82.90
2023-04-16T19:47:59.157Z,82.75
2023-04-16T19:51:06.553Z,82.41
2023-04-16T19:54:10.007Z,82.36
2023-04-16T19:57:13.307Z,83.71
2023-04-16T20:00:17.722Z,83.48
2023-04-16T20:03:21.367Z,83.13
2023-04-16T20:06:25.887Z,84.95
2023-04-16T20:09:29.929Z,86.05
2023-04-16T20:12:35.097Z,84.75
2023-04-16T20:15:38.973Z,84.51
2023-04-16T20:18:42.863Z,84.39
2023-04-16T20:21:47.026Z,84.08
2023-04-16T20:24:52.653Z,84.01
2023-04-16T20:27:55.883Z,84.46
2023-04-16T20:30:59.203Z,84.63
2023-04-16T20:34:02.382Z,85.26
2023-04-16T20:37:05.583Z,86.10
2023-04-16T20:40:10.046Z,85.69
2023-04-16T20:43:17.104Z,84.90
2023-04-16T20:46:24.502Z,84.40
2023-04-16T20:49:27.346Z,85.00
2023-04-16T20:52:30.310Z,85.68
2023-04-16T20:55:32.957Z,86.36
2023-04-16T20:58:36.138Z,87.12
2023-04-16T21:01:38.647Z,86.80
2023-04-16T21:04:41.876Z,86.50
2023-04-16T21:07:44.542Z,85.94
2023-04-16T21:10:47.624Z,86.23
2023-04-16T21:13:50.337Z,86.32
2023-04-16T21:16:53.410Z,85.94
2023-04-16T21:19:56.017Z,86.44
2023-04-16T21:22:59.276Z,87.18
2023-04-16T21:26:01.873Z,86.33
2023-04-16T21:29:04.743Z,86.37
2023-04-16T21:32:07.383Z,87.10
2023-04-16T21:35:10.558Z,87.21
2023-04-16T21:38:13.140Z,87.31
2023-04-16T21:41:16.770Z,86.60
2023-04-16T21:44:19.389Z,88.73
2023-04-16T21:47:22.331Z,88.30
2023-04-16T21:50:25.013Z,87.53
2023-04-16T21:53:32.203Z,88.64
2023-04-16T21:56:34.939Z,88.21
2023-04-16T21:59:38.606Z,87.62
2023-04-16T22:02:42.715Z,87.41
2023-04-16T22:05:46.167Z,87.86
2023-04-16T22:08:50.106Z,88.24
2023-04-16T22:11:53.291Z,88.40
2023-04-16T22:15:02.285Z,89.00
2023-04-16T22:18:06.594Z,89.73
2023-04-16T22:21:09.239Z,90.26
2023-04-16T22:24:12.370Z,90.77
2023-04-16T22:27:14.966Z,90.81
2023-04-16T22:30:18.140Z,90.45
2023-04-16T22:33:20.955Z,91.14
2023-04-16T22:36:23.924Z,90.98
2023-04-16T22:39:28.669Z,90.39
2023-04-16T22:42:31.798Z,90.66
2023-04-16T22:45:34.775Z,90.42
2023-04-16T22:48:38.858Z,90.48
2023-04-16T22:51:41.367Z,91.02
2023-04-16T22:54:44.322Z,91.75
2023-04-16T22:57:47.659Z,94.50
2023-04-16T23:00:52.125Z,93.49
2023-04-16T23:03:54.883Z,92.67
2023-04-16T23:06:57.923Z,91.92
2023-04-16T23:10:00.766Z,91.30
2023-04-16T23:13:03.818Z,90.35
2023-04-16T23:16:07.094Z,90.44
2023-04-16T23:19:15.079Z,90.81
2023-04-16T23:22:17.733Z,92.17
2023-04-16T23:25:22.572Z,91.95
2023-04-16T23:28:25.338Z,91.45
2023-04-16T23:31:29.034Z,91.07
2023-04-16T23:34:31.686Z,90.93
2023-04-16T23:37:34.774Z,91.12
2023-04-16T23:40:37.347Z,90.98
2023-04-16T23:43:40.945Z,90.79
2023-04-16T23:46:43.648Z,91.62
2023-04-16T23:49:47.446Z,92.79
2023-04-16T23:52:50.115Z,91.95
2023-04-16T23:55:52.974Z,91.75
2023-04-16T23:58:56.264Z,90.92
